Time,TemperatureF,DewpointF,PressureIn,WindDirection,WindDirectionDegrees,WindSpeedMPH,WindSpeedGustMPH,Humidity,HourlyPrecipIn,Conditions,Clouds,dailyrainin,SoftwareType,DateUTC
2013-04-05 00:02:00,47.0,37.0,30.06,WSW,257,0.0,-999.0,69,-99.99,,,-99.99,,2013-04-05 04:02:00,
2013-04-05 00:12:00,47.0,37.0,30.06,WSW,257,0.0,-999.0,69,-99.99,,,-99.99,,2013-04-05 04:12:00,
2013-04-05 00:22:00,47.0,37.0,30.06,WSW,257,0.0,-999.0,67,-99.99,,,-99.99,,2013-04-05 04:22:00,
2013-04-05 00:32:00,47.0,36.0,30.06,WSW,257,0.0,-999.0,66,-99.99,,,-99.99,,2013-04-05 04:32:00,
2013-04-05 00:42:00,47.0,36.0,30.06,WSW,257,0.0,-999.0,66,-99.99,,,-99.99,,2013-04-05 04:42:00,
2013-04-05 00:52:00,47.0,36.0,30.06,WSW,257,0.0,-999.0,66,-99.99,,,-99.99,,2013-04-05 04:52:00,
2013-04-05 01:02:00,45.0,37.0,30.07,WSW,257,0.0,-999.0,73,-99.99,,,-99.99,,2013-04-05 05:02:00,
2013-04-05 01:13:00,45.0,37.0,30.07,WSW,257,0.0,-999.0,73,-99.99,,,-99.99,,2013-04-05 05:13:00,
2013-04-05 01:22:00,44.0,36.0,30.07,WSW,257,0.0,-999.0,74,-99.99,,,-99.99,,2013-04-05 05:22:00,
2013-04-05 01:32:00,42.0,35.0,30.08,WSW,257,0.0,-999.0,75,-99.99,,,-99.99,,2013-04-05 05:32:00,
2013-04-05 01:42:00,42.0,35.0,30.08,WSW,257,0.0,-999.0,75,-99.99,,,-99.99,,2013-04-05 05:42:00,
2013-04-05 01:52:00,41.0,34.0,30.08,WSW,257,0.0,-999.0,76,-99.99,,,-99.99,,2013-04-05 05:52:00,
2013-04-05 02:02:00,40.0,33.0,30.08,WSW,257,0.0,-999.0,76,-99.99,,,-99.99,,2013-04-05 06:02:00,
2013-04-05 02:12:00,40.0,33.0,30.08,WSW,257,0.0,-999.0,76,-99.99,,,-99.99,,2013-04-05 06:12:00,
2013-04-05 02:22:00,39.0,32.0,30.09,WSW,257,0.0,-999.0,77,-99.99,,,-99.99,,2013-04-05 06:22:00,
2013-04-05 02:32:00,38.0,32.0,30.09,WSW,257,0.0,-999.0,79,-99.99,,,-99.99,,2013-04-05 06:32:00,
2013-04-05 02:42:00,38.0,32.0,30.09,WSW,257,0.0,-999.0,79,-99.99,,,-99.99,,2013-04-05 06:42:00,
2013-04-05 02:52:00,37.0,31.0,30.09,WSW,257,0.0,-999.0,80,-99.99,,,-99.99,,2013-04-05 06:52:00,
2013-04-05 03:02:00,37.0,31.0,30.10,WSW,257,0.0,-999.0,80,-99.99,,,-99.99,,2013-04-05 07:02:00,
2013-04-05 03:12:00,37.0,31.0,30.10,WSW,257,0.0,-999.0,80,-99.99,,,-99.99,,2013-04-05 07:12:00,
2013-04-05 03:22:00,36.0,30.0,30.10,WSW,257,0.0,-999.0,80,-99.99,,,-99.99,,2013-04-05 07:22:00,
2013-04-05 03:32:00,35.0,30.0,30.10,WSW,257,0.0,-999.0,82,-99.99,,,-99.99,,2013-04-05 07:32:00,
2013-04-05 03:42:00,35.0,30.0,30.10,WSW,257,0.0,-999.0,82,-99.99,,,-99.99,,2013-04-05 07:42:00,
2013-04-05 03:52:00,35.0,30.0,30.10,WSW,257,0.0,-999.0,82,-99.99,,,-99.99,,2013-04-05 07:52:00,
2013-04-05 04:02:00,34.0,29.0,30.09,WSW,257,0.0,-999.0,83,-99.99,,,-99.99,,2013-04-05 08:02:00,
2013-04-05 04:13:00,34.0,29.0,30.09,WSW,257,0.0,-999.0,83,-99.99,,,-99.99,,2013-04-05 08:13:00,
2013-04-05 04:22:00,34.0,30.0,30.10,WSW,257,0.0,-999.0,84,-99.99,,,-99.99,,2013-04-05 08:22:00,
2013-04-05 04:32:00,33.0,29.0,30.10,WSW,257,0.0,-999.0,84,-99.99,,,-99.99,,2013-04-05 08:32:00,
2013-04-05 04:43:00,33.0,29.0,30.10,WSW,257,0.0,-999.0,84,-99.99,,,-99.99,,2013-04-05 08:43:00,
2013-04-05 04:52:00,33.0,29.0,30.10,WSW,257,0.0,-999.0,86,-99.99,,,-99.99,,2013-04-05 08:52:00,
2013-04-05 05:02:00,33.0,29.0,30.11,WSW,257,0.0,-999.0,86,-99.99,,,-99.99,,2013-04-05 09:02:00,
2013-04-05 05:12:00,33.0,29.0,30.11,WSW,257,0.0,-999.0,86,-99.99,,,-99.99,,2013-04-05 09:12:00,
2013-04-05 05:22:00,33.0,30.0,30.11,WSW,257,0.0,-999.0,87,-99.99,,,-99.99,,2013-04-05 09:22:00,
2013-04-05 05:33:00,32.0,28.0,30.11,WSW,257,0.0,-999.0,86,-99.99,,,-99.99,,2013-04-05 09:33:00,
2013-04-05 05:42:00,32.0,28.0,30.11,WSW,257,0.0,-999.0,86,-99.99,,,-99.99,,2013-04-05 09:42:00,
2013-04-05 05:52:00,32.0,28.0,30.11,WSW,257,0.0,-999.0,86,-99.99,,,-99.99,,2013-04-05 09:52:00,
2013-04-05 06:03:00,31.0,28.0,30.12,WSW,257,0.0,-999.0,88,-99.99,,,-99.99,,2013-04-05 10:03:00,
2013-04-05 06:13:00,31.0,28.0,30.12,WSW,257,0.0,-999.0,88,-99.99,,,-99.99,,2013-04-05 10:13:00,
2013-04-05 06:23:00,31.0,28.0,30.12,WSW,257,0.0,-999.0,88,-99.99,,,-99.99,,2013-04-05 10:23:00,
2013-04-05 06:33:00,31.0,28.0,30.12,WSW,257,0.0,-999.0,88,-99.99,,,-99.99,,2013-04-05 10:33:00,
2013-04-05 06:42:00,31.0,28.0,30.12,WSW,257,0.0,-999.0,88,-99.99,,,-99.99,,2013-04-05 10:42:00,
2013-04-05 06:52:00,30.0,27.0,30.12,WSW,257,0.0,-999.0,88,-99.99,,,-99.99,,2013-04-05 10:52:00,
2013-04-05 07:02:00,30.0,27.0,30.12,WSW,257,0.0,-999.0,88,-99.99,,,-99.99,,2013-04-05 11:02:00,
2013-04-05 07:12:00,30.0,27.0,30.12,WSW,257,0.0,-999.0,88,-99.99,,,-99.99,,2013-04-05 11:12:00,
2013-04-05 07:22:00,30.0,27.0,30.13,WSW,257,0.0,-999.0,89,-99.99,,,-99.99,,2013-04-05 11:22:00,
2013-04-05 07:33:00,30.0,27.0,30.14,WSW,257,0.0,-999.0,89,-99.99,,,-99.99,,2013-04-05 11:33:00,
2013-04-05 07:42:00,30.0,27.0,30.14,WSW,257,0.0,-999.0,89,-99.99,,,-99.99,,2013-04-05 11:42:00,
2013-04-05 07:52:00,29.0,26.0,30.14,WSW,257,0.0,-999.0,89,-99.99,,,-99.99,,2013-04-05 11:52:00,
2013-04-05 08:02:00,29.0,26.0,30.15,WSW,257,0.0,-999.0,90,-99.99,,,-99.99,,2013-04-05 12:02:00,
2013-04-05 08:12:00,29.0,26.0,30.15,WSW,257,0.0,-999.0,90,-99.99,,,-99.99,,2013-04-05 12:12:00,
2013-04-05 08:22:00,29.0,26.0,30.15,WSW,257,0.0,-999.0,90,-99.99,,,-99.99,,2013-04-05 12:22:00,
2013-04-05 08:32:00,29.0,26.0,30.16,WSW,257,0.0,-999.0,90,-99.99,,,-99.99,,2013-04-05 12:32:00,
2013-04-05 08:42:00,29.0,26.0,30.16,WSW,257,0.0,-999.0,90,-99.99,,,-99.99,,2013-04-05 12:42:00,
2013-04-05 08:52:00,29.0,26.0,30.16,NNE,17,0.0,-999.0,90,-99.99,,,-99.99,,2013-04-05 12:52:00,
2013-04-05 09:02:00,30.0,27.0,30.17,West,274,0.0,-999.0,90,-99.99,,,-99.99,,2013-04-05 13:02:00,
2013-04-05 09:12:00,30.0,27.0,30.17,West,274,0.0,-999.0,90,-99.99,,,-99.99,,2013-04-05 13:12:00,
2013-04-05 09:22:00,32.0,29.0,30.17,WNW,285,0.0,-999.0,89,-99.99,,,-99.99,,2013-04-05 13:22:00,
2013-04-05 09:32:00,34.0,31.0,30.18,NNE,32,0.0,-999.0,88,-99.99,,,-99.99,,2013-04-05 13:32:00,
2013-04-05 09:42:00,34.0,31.0,30.18,NNE,32,0.0,-999.0,88,-99.99,,,-99.99,,2013-04-05 13:42:00,
2013-04-05 09:52:00,36.0,33.0,30.18,ESE,105,0.0,-999.0,87,-99.99,,,-99.99,,2013-04-05 13:52:00,
2013-04-05 10:03:00,38.0,34.0,30.18,ESE,105,0.0,-999.0,84,-99.99,,,-99.99,,2013-04-05 14:03:00,
2013-04-05 10:12:00,38.0,34.0,30.18,ESE,105,0.0,-999.0,84,-99.99,,,-99.99,,2013-04-05 14:12:00,
2013-04-05 10:22:00,40.0,35.0,30.17,East,80,0.0,-999.0,81,-99.99,,,-99.99,,2013-04-05 14:22:00,
2013-04-05 10:36:00,43.0,34.0,30.17,NNE,22,0.0,-999.0,71,-99.99,,,-99.99,,2013-04-05 14:36:00,
2013-04-05 10:42:00,43.0,34.0,30.17,NNE,22,0.0,-999.0,71,-99.99,,,-99.99,,2013-04-05 14:42:00,
2013-04-05 10:52:00,45.0,35.0,30.17,NNE,22,0.0,-999.0,69,-99.99,,,-99.99,,2013-04-05 14:52:00,
2013-04-05 11:02:00,47.0,37.0,30.17,NNE,22,0.0,-999.0,67,-99.99,,,-99.99,,2013-04-05 15:02:00,
2013-04-05 11:12:00,47.0,37.0,30.17,NNE,22,0.0,-999.0,67,-99.99,,,-99.99,,2013-04-05 15:12:00,
2013-04-05 11:23:00,49.0,36.0,30.17,NNE,22,0.0,-999.0,61,-99.99,,,-99.99,,2013-04-05 15:23:00,
2013-04-05 11:33:00,52.0,34.0,30.17,NNE,22,0.0,-999.0,51,-99.99,,,-99.99,,2013-04-05 15:33:00,
2013-04-05 11:42:00,52.0,34.0,30.17,NNE,22,0.0,-999.0,51,-99.99,,,-99.99,,2013-04-05 15:42:00,
2013-04-05 11:53:00,53.0,36.0,30.17,NNE,22,0.0,-999.0,53,-99.99,,,-99.99,,2013-04-05 15:53:00,
2013-04-05 12:02:00,54.0,36.0,30.17,NNE,22,0.0,-999.0,50,-99.99,,,-99.99,,2013-04-05 16:02:00,
2013-04-05 12:13:00,54.0,36.0,30.17,NNE,22,0.0,-999.0,50,-99.99,,,-99.99,,2013-04-05 16:13:00,
2013-04-05 12:23:00,56.0,37.0,30.17,NNE,22,0.0,-999.0,49,-99.99,,,-99.99,,2013-04-05 16:23:00,
2013-04-05 12:33:00,58.0,36.0,30.17,NNE,22,0.0,-999.0,44,-99.99,,,-99.99,,2013-04-05 16:33:00,
2013-04-05 12:42:00,58.0,36.0,30.17,NNE,22,0.0,-999.0,44,-99.99,,,-99.99,,2013-04-05 16:42:00,
2013-04-05 12:52:00,58.0,36.0,30.17,NNE,22,0.0,-999.0,44,-99.99,,,-99.99,,2013-04-05 16:52:00,
2013-04-05 13:03:00,61.0,35.0,30.16,WSW,250,0.0,-999.0,37,-99.99,,,-99.99,,2013-04-05 17:03:00,
2013-04-05 13:13:00,61.0,35.0,30.16,WSW,250,0.0,-999.0,37,-99.99,,,-99.99,,2013-04-05 17:13:00,
2013-04-05 13:23:00,63.0,35.0,30.15,WSW,250,0.0,-999.0,35,-99.99,,,-99.99,,2013-04-05 17:23:00,
2013-04-05 13:32:00,63.0,36.0,30.14,WSW,252,1.0,-999.0,36,-99.99,,,-99.99,,2013-04-05 17:32:00,
2013-04-05 13:45:00,63.0,36.0,30.14,WSW,252,1.0,-999.0,36,-99.99,,,-99.99,,2013-04-05 17:45:00,
2013-04-05 13:52:00,63.0,35.0,30.14,NNW,347,0.0,-999.0,35,-99.99,,,-99.99,,2013-04-05 17:52:00,
2013-04-05 14:02:00,65.0,36.0,30.14,West,277,0.0,-999.0,34,-99.99,,,-99.99,,2013-04-05 18:02:00,
2013-04-05 14:12:00,65.0,36.0,30.14,West,277,0.0,-999.0,34,-99.99,,,-99.99,,2013-04-05 18:12:00,
2013-04-05 14:22:00,65.0,34.0,30.13,East,89,1.0,-999.0,32,-99.99,,,-99.99,,2013-04-05 18:22:00,
2013-04-05 14:33:00,65.0,34.0,30.12,ENE,78,1.0,-999.0,32,-99.99,,,-99.99,,2013-04-05 18:33:00,
2013-04-05 14:42:00,65.0,34.0,30.12,ENE,78,1.0,-999.0,32,-99.99,,,-99.99,,2013-04-05 18:42:00,
2013-04-05 14:52:00,66.0,34.0,30.11,ENE,69,1.0,-999.0,31,-99.99,,,-99.99,,2013-04-05 18:52:00,
2013-04-05 15:02:00,66.0,34.0,30.10,WNW,300,2.0,-999.0,30,-99.99,,,-99.99,,2013-04-05 19:02:00,
2013-04-05 15:13:00,66.0,34.0,30.10,WNW,300,2.0,-999.0,30,-99.99,,,-99.99,,2013-04-05 19:13:00,
2013-04-05 15:22:00,67.0,35.0,30.09,West,267,1.0,-999.0,31,-99.99,,,-99.99,,2013-04-05 19:22:00,
2013-04-05 15:33:00,67.0,35.0,30.09,West,267,1.0,-999.0,31,-99.99,,,-99.99,,2013-04-05 19:33:00,
2013-04-05 15:42:00,67.0,35.0,30.09,West,267,1.0,-999.0,31,-99.99,,,-99.99,,2013-04-05 19:42:00,
2013-04-05 15:52:00,67.0,35.0,30.09,West,267,1.0,-999.0,31,-99.99,,,-99.99,,2013-04-05 19:52:00,
2013-04-05 16:22:00,69.0,39.0,30.07,WSW,238,1.0,-999.0,33,-99.99,,,-99.99,,2013-04-05 20:22:00,
2013-04-05 16:33:00,69.0,39.0,30.07,WSW,238,1.0,-999.0,33,-99.99,,,-99.99,,2013-04-05 20:33:00,
2013-04-05 16:42:00,69.0,39.0,30.07,WSW,238,1.0,-999.0,33,-99.99,,,-99.99,,2013-04-05 20:42:00,
2013-04-05 16:52:00,70.0,36.0,30.06,SW,229,1.0,-999.0,29,-99.99,,,-99.99,,2013-04-05 20:52:00,
2013-04-05 17:02:00,71.0,37.0,30.05,West,269,1.0,-999.0,29,-99.99,,,-99.99,,2013-04-05 21:02:00,
2013-04-05 17:12:00,71.0,37.0,30.05,West,269,1.0,-999.0,29,-99.99,,,-99.99,,2013-04-05 21:12:00,
2013-04-05 17:23:00,71.0,40.0,30.04,West,267,1.0,-999.0,32,-99.99,,,-99.99,,2013-04-05 21:23:00,
2013-04-05 17:33:00,71.0,35.0,30.03,West,267,0.0,-999.0,27,-99.99,,,-99.99,,2013-04-05 21:33:00,
2013-04-05 17:43:00,71.0,35.0,30.03,West,267,0.0,-999.0,27,-99.99,,,-99.99,,2013-04-05 21:43:00,
2013-04-05 17:53:00,71.0,35.0,30.03,NNW,336,1.0,-999.0,27,-99.99,,,-99.99,,2013-04-05 21:53:00,
2013-04-05 18:03:00,72.0,37.0,30.02,NNW,334,0.0,-999.0,28,-99.99,,,-99.99,,2013-04-05 22:03:00,
2013-04-05 18:13:00,72.0,37.0,30.02,NNW,334,0.0,-999.0,28,-99.99,,,-99.99,,2013-04-05 22:13:00,
2013-04-05 18:23:00,72.0,36.0,30.01,NW,315,1.0,-999.0,27,-99.99,,,-99.99,,2013-04-05 22:23:00,
2013-04-05 18:33:00,72.0,39.0,30.01,NW,315,1.0,-999.0,30,-99.99,,,-99.99,,2013-04-05 22:33:00,
2013-04-05 18:43:00,72.0,39.0,30.01,NW,315,1.0,-999.0,30,-99.99,,,-99.99,,2013-04-05 22:43:00,
2013-04-05 18:52:00,74.0,38.0,30.00,NW,315,0.0,-999.0,27,-99.99,,,-99.99,,2013-04-05 22:52:00,
2013-04-05 19:02:00,72.0,37.0,30.00,ENE,62,1.0,-999.0,28,-99.99,,,-99.99,,2013-04-05 23:02:00,
2013-04-05 19:12:00,72.0,37.0,30.00,ENE,62,1.0,-999.0,28,-99.99,,,-99.99,,2013-04-05 23:12:00,
2013-04-05 19:22:00,72.0,37.0,30.00,SSE,168,1.0,-999.0,28,-99.99,,,-99.99,,2013-04-05 23:22:00,
2013-04-05 19:32:00,72.0,37.0,30.00,SSE,168,1.0,-999.0,28,-99.99,,,-99.99,,2013-04-05 23:32:00,
2013-04-05 19:42:00,72.0,37.0,30.00,SSE,168,1.0,-999.0,28,-99.99,,,-99.99,,2013-04-05 23:42:00,
2013-04-05 19:52:00,72.0,37.0,29.99,NNE,32,1.0,-999.0,28,-99.99,,,-99.99,,2013-04-05 23:52:00,
2013-04-05 20:02:00,71.0,37.0,29.99,NE,34,0.0,-999.0,29,-99.99,,,-99.99,,2013-04-06 00:02:00,
2013-04-05 20:13:00,71.0,37.0,29.99,NE,34,0.0,-999.0,29,-99.99,,,-99.99,,2013-04-06 00:13:00,
2013-04-05 20:22:00,70.0,40.0,29.99,NE,38,0.0,-999.0,33,-99.99,,,-99.99,,2013-04-06 00:22:00,
2013-04-05 20:33:00,68.0,42.0,29.99,NE,38,0.0,-999.0,39,-99.99,,,-99.99,,2013-04-06 00:33:00,
2013-04-05 20:42:00,68.0,42.0,29.99,NE,38,0.0,-999.0,39,-99.99,,,-99.99,,2013-04-06 00:42:00,
2013-04-05 20:52:00,66.0,43.0,29.99,NE,38,0.0,-999.0,43,-99.99,,,-99.99,,2013-04-06 00:52:00,
2013-04-05 21:02:00,63.0,42.0,29.99,NE,38,0.0,-999.0,46,-99.99,,,-99.99,,2013-04-06 01:02:00,
2013-04-05 21:12:00,60.0,42.0,30.00,NE,38,0.0,-999.0,51,-99.99,,,-99.99,,2013-04-06 01:12:00,
2013-04-05 21:22:00,60.0,42.0,30.00,NE,38,0.0,-999.0,51,-99.99,,,-99.99,,2013-04-06 01:22:00,
2013-04-05 21:32:00,57.0,41.0,30.01,NE,38,0.0,-999.0,54,-99.99,,,-99.99,,2013-04-06 01:32:00,
2013-04-05 21:42:00,57.0,41.0,30.01,NE,38,0.0,-999.0,54,-99.99,,,-99.99,,2013-04-06 01:42:00,
2013-04-05 21:52:00,55.0,41.0,30.01,NE,38,0.0,-999.0,60,-99.99,,,-99.99,,2013-04-06 01:52:00,
2013-04-05 22:02:00,54.0,41.0,30.01,NE,38,0.0,-999.0,62,-99.99,,,-99.99,,2013-04-06 02:02:00,
2013-04-05 22:12:00,54.0,41.0,30.01,NE,38,0.0,-999.0,62,-99.99,,,-99.99,,2013-04-06 02:12:00,
2013-04-05 22:22:00,52.0,40.0,30.01,NE,38,0.0,-999.0,63,-99.99,,,-99.99,,2013-04-06 02:22:00,
2013-04-05 22:32:00,51.0,39.0,30.02,NE,38,0.0,-999.0,64,-99.99,,,-99.99,,2013-04-06 02:32:00,
2013-04-05 22:42:00,51.0,39.0,30.02,NE,38,0.0,-999.0,64,-99.99,,,-99.99,,2013-04-06 02:42:00,
2013-04-05 22:52:00,50.0,40.0,30.03,NE,38,0.0,-999.0,68,-99.99,,,-99.99,,2013-04-06 02:52:00,
2013-04-05 23:02:00,50.0,40.0,30.03,NE,38,0.0,-999.0,68,-99.99,,,-99.99,,2013-04-06 03:02:00,
2013-04-05 23:12:00,50.0,40.0,30.03,NE,38,0.0,-999.0,68,-99.99,,,-99.99,,2013-04-06 03:12:00,
2013-04-05 23:22:00,50.0,39.0,30.03,NE,38,0.0,-999.0,65,-99.99,,,-99.99,,2013-04-06 03:22:00,
2013-04-05 23:33:00,51.0,39.0,30.02,NE,38,0.0,-999.0,64,-99.99,,,-99.99,,2013-04-06 03:33:00,
2013-04-05 23:42:00,51.0,39.0,30.02,NE,38,0.0,-999.0,64,-99.99,,,-99.99,,2013-04-06 03:42:00,
2013-04-05 23:53:00,51.0,38.0,30.02,NE,38,0.0,-999.0,61,-99.99,,,-99.99,,2013-04-06 03:53:00,